Time;durP1;ratioP1;P1;durP2;ratioP2;P2;SDS_P1;SDS_P2;PMS_P1;PMS_P2;Temp;Humidity;BMP_temperature;BMP_pressure;BME280_temperature;BME280_humidity;BME280_pressure;Samples;Min_cycle;Max_cycle;Signal;HPM_P1;HPM_P2
2021/01/31 00:00:21;;;;;;;9.18;7.43;;;;;;;-1.14;nan;99186.88;5077079;28;20199;-64
2021/01/31 00:02:48;;;;;;;10.25;7.53;;;;;;;-1.10;nan;99191.94;5075832;28;20270;-64
2021/01/31 00:05:15;;;;;;;9.35;6.97;;;;;;;-1.24;nan;99192.78;5071761;28;20191;-64
2021/01/31 00:07:42;;;;;;;9.05;6.65;;;;;;;-1.26;nan;99181.53;5081413;28;20249;-63
2021/01/31 00:10:10;;;;;;;9.60;7.10;;;;;;;-1.21;nan;99188.19;5073969;28;20244;-63
2021/01/31 00:12:36;;;;;;;11.27;7.05;;;;;;;-1.26;nan;99195.47;5073079;28;20308;-65
2021/01/31 00:15:05;;;;;;;10.68;7.30;;;;;;;-1.18;nan;99195.00;5075811;28;20186;-64
2021/01/31 00:17:31;;;;;;;9.90;7.15;;;;;;;-1.21;nan;99196.06;5080328;28;20255;-63
2021/01/31 00:19:57;;;;;;;10.93;7.82;;;;;;;-1.23;nan;99197.94;5078667;28;20233;-63
2021/01/31 00:22:23;;;;;;;10.05;7.00;;;;;;;-1.22;nan;99196.97;5082362;28;20712;-63
2021/01/31 00:24:54;;;;;;;6.82;5.93;;;;;;;-1.28;nan;99204.41;5075365;28;20214;-63
2021/01/31 00:27:21;;;;;;;9.75;7.95;;;;;;;-1.40;nan;99206.78;5082371;28;20297;-63
2021/01/31 00:29:48;;;;;;;9.27;6.53;;;;;;;-1.33;nan;99208.13;5076455;28;20205;-62
2021/01/31 00:32:14;;;;;;;8.30;5.65;;;;;;;-1.39;nan;99208.50;5077369;28;20258;-62
2021/01/31 00:34:40;;;;;;;8.85;7.55;;;;;;;-1.38;nan;99211.94;5074999;28;20577;-63
2021/01/31 00:37:07;;;;;;;9.95;6.80;;;;;;;-1.45;nan;99214.09;5082458;28;20227;-63
2021/01/31 00:39:33;;;;;;;7.95;6.25;;;;;;;-1.34;nan;99210.81;5080138;28;20701;-64
2021/01/31 00:42:00;;;;;;;8.07;6.75;;;;;;;-1.36;nan;99212.69;5073119;28;20229;-63
2021/01/31 00:44:26;;;;;;;8.73;6.53;;;;;;;-1.37;nan;99213.63;5078200;28;20198;-63
2021/01/31 00:46:52;;;;;;;9.70;6.90;;;;;;;-1.36;nan;99217.94;5076175;28;20624;-63
2021/01/31 00:49:19;;;;;;;8.05;6.90;;;;;;;-1.54;nan;99212.00;5062976;28;20273;-63
2021/01/31 00:51:46;;;;;;;8.85;6.20;;;;;;;-1.50;nan;99204.81;5075876;28;20241;-63
2021/01/31 00:54:13;;;;;;;6.68;5.90;;;;;;;-1.41;nan;99205.09;5079015;28;20203;-64
2021/01/31 00:56:39;;;;;;;13.65;6.50;;;;;;;-1.45;nan;99210.63;5068388;28;20240;-63
2021/01/31 00:59:06;;;;;;;8.02;6.72;;;;;;;-1.54;nan;99206.78;5081885;28;20244;-64
2021/01/31 01:01:32;;;;;;;9.60;6.68;;;;;;;-1.39;nan;99211.13;5076274;28;20230;-63
2021/01/31 01:03:58;;;;;;;8.95;6.25;;;;;;;-1.19;nan;99217.78;5080084;28;20237;-63
2021/01/31 01:06:24;;;;;;;8.32;6.72;;;;;;;-1.19;nan;99227.44;5078384;28;20241;-63
2021/01/31 01:08:50;;;;;;;9.23;6.63;;;;;;;-1.26;nan;99220.88;5071311;28;20226;-63
2021/01/31 01:11:16;;;;;;;8.13;6.22;;;;;;;-1.33;nan;99223.00;5080161;28;20256;-63
2021/01/31 01:13:42;;;;;;;9.50;6.82;;;;;;;-1.44;nan;99220.16;5077239;28;20259;-63
2021/01/31 01:16:09;;;;;;;11.15;6.70;;;;;;;-1.53;nan;99214.53;5072659;28;20260;-64
2021/01/31 01:18:36;;;;;;;8.93;7.13;;;;;;;-1.55;nan;99215.56;5082283;28;20245;-62
2021/01/31 01:21:03;;;;;;;8.80;6.40;;;;;;;-1.66;nan;99221.41;5079682;28;20237;-63
2021/01/31 01:23:29;;;;;;;8.60;7.70;;;;;;;-1.67;nan;99218.88;5078231;28;20202;-63
2021/01/31 01:25:55;;;;;;;11.52;7.28;;;;;;;-1.68;nan;99218.06;5069513;28;20322;-63
2021/01/31 01:28:21;;;;;;;9.25;7.32;;;;;;;-1.69;nan;99213.72;5079492;28;20242;-63
2021/01/31 01:30:47;;;;;;;11.45;8.52;;;;;;;-1.66;nan;99220.59;5072444;28;20257;-63
2021/01/31 01:33:14;;;;;;;10.48;7.03;;;;;;;-1.62;nan;99225.53;5082082;28;20209;-63
2021/01/31 01:35:40;;;;;;;10.55;7.15;;;;;;;-1.60;nan;99228.91;5077125;28;20762;-64
2021/01/31 01:38:07;;;;;;;9.38;7.47;;;;;;;-1.62;nan;99222.91;5074533;28;20207;-63
2021/01/31 01:40:35;;;;;;;12.32;6.93;;;;;;;-1.58;nan;99220.97;5076372;28;20253;-63
2021/01/31 01:43:02;;;;;;;8.80;7.40;;;;;;;-1.56;nan;99229.59;5068245;28;20666;-63
2021/01/31 01:45:28;;;;;;;13.07;7.65;;;;;;;-1.59;nan;99217.50;5079359;28;20252;-63
2021/01/31 01:47:58;;;;;;;11.23;9.13;;;;;;;-1.64;nan;99222.16;5073075;28;20245;-63
2021/01/31 01:50:36;;;;;;;12.00;8.80;;;;;;;-1.67;nan;99222.34;5080637;28;20245;-63
2021/01/31 01:53:02;;;;;;;13.18;8.30;;;;;;;-1.73;nan;99220.94;5069474;28;20206;-62
2021/01/31 01:55:32;;;;;;;11.60;8.52;;;;;;;-1.66;nan;99226.66;5075671;28;20252;-63
2021/01/31 01:58:04;;;;;;;12.38;8.95;;;;;;;-1.72;nan;99221.75;5068285;28;20235;-63
2021/01/31 02:00:31;;;;;;;10.68;7.97;;;;;;;-1.78;nan;99222.97;5078644;28;20244;-63
2021/01/31 02:02:59;;;;;;;12.77;8.48;;;;;;;-2.00;nan;99227.75;5075291;28;20205;-63
2021/01/31 02:05:26;;;;;;;11.80;7.90;;;;;;;-1.96;nan;99231.84;5078515;28;20604;-63
2021/01/31 02:07:53;;;;;;;10.60;8.00;;;;;;;-1.93;nan;99235.19;5062703;28;20215;-63
2021/01/31 02:10:22;;;;;;;9.30;8.35;;;;;;;-2.03;nan;99236.63;5074990;28;20684;-63
2021/01/31 02:12:49;;;;;;;9.00;7.22;;;;;;;-2.01;nan;99236.53;5076223;28;20670;-63
2021/01/31 02:15:16;;;;;;;8.80;6.53;;;;;;;-2.02;nan;99230.44;5069850;28;20656;-63
2021/01/31 02:18:09;;;;;;;11.00;8.40;;;;;;;-2.08;nan;99231.63;5073021;28;20291;-63
2021/01/31 02:21:05;;;;;;;12.40;7.68;;;;;;;-2.22;nan;99228.06;5072043;28;20233;-63
2021/01/31 02:24:03;;;;;;;13.60;8.88;;;;;;;-2.21;nan;99232.41;5072237;28;20206;-63
2021/01/31 02:26:50;;;;;;;9.73;6.53;;;;;;;-2.30;nan;99237.22;5068549;28;20246;-63
2021/01/31 02:29:36;;;;;;;11.23;8.15;;;;;;;-2.32;nan;99225.97;5068233;28;20249;-63
2021/01/31 02:32:30;;;;;;;11.95;7.63;;;;;;;-2.29;nan;99230.22;5073081;28;20245;-63
2021/01/31 02:35:01;;;;;;;11.52;8.20;;;;;;;-2.29;nan;99232.84;5081401;28;20217;-63
2021/01/31 02:37:31;;;;;;;11.70;7.95;;;;;;;-2.24;nan;99233.41;5072880;28;20241;-63
2021/01/31 02:40:08;;;;;;;11.65;8.65;;;;;;;-2.29;nan;99238.91;5065282;28;20233;-63
2021/01/31 02:42:39;;;;;;;11.57;7.32;;;;;;;-2.22;nan;99236.81;5072782;28;20235;-63
2021/01/31 02:45:12;;;;;;;12.55;8.77;;;;;;;-2.27;nan;99239.66;5068987;28;20202;-62
2021/01/31 02:47:42;;;;;;;13.85;9.00;;;;;;;-2.27;nan;99242.28;5067276;28;20553;-63
2021/01/31 02:50:12;;;;;;;12.93;8.77;;;;;;;-2.36;nan;99236.69;5080414;28;20212;-62
2021/01/31 02:52:42;;;;;;;11.82;8.68;;;;;;;-2.46;nan;99229.34;5077504;28;20221;-62
2021/01/31 02:55:12;;;;;;;12.15;8.48;;;;;;;-2.43;nan;99233.59;5065686;28;20229;-63
2021/01/31 02:57:40;;;;;;;12.45;8.45;;;;;;;-2.42;nan;99229.19;5079313;28;20197;-62
2021/01/31 03:00:12;;;;;;;12.48;8.38;;;;;;;-2.39;nan;99229.88;5072061;28;20672;-63
2021/01/31 03:02:44;;;;;;;11.73;9.00;;;;;;;-2.37;nan;99228.00;5079657;28;20202;-63
2021/01/31 03:05:14;;;;;;;14.38;8.88;;;;;;;-2.29;nan;99227.59;5064392;28;20194;-62
2021/01/31 03:07:46;;;;;;;13.40;9.35;;;;;;;-2.42;nan;99230.03;5072581;28;20230;-62
2021/01/31 03:10:14;;;;;;;11.77;8.65;;;;;;;-2.58;nan;99219.56;5069757;28;20239;-62
2021/01/31 03:12:43;;;;;;;13.73;9.10;;;;;;;-2.59;nan;99219.63;5079691;28;20244;-63
2021/01/31 03:15:12;;;;;;;12.60;9.20;;;;;;;-2.44;nan;99212.72;5078400;28;20198;-62
2021/01/31 03:17:42;;;;;;;14.15;9.48;;;;;;;-2.39;nan;99216.78;5068769;28;20232;-63
2021/01/31 03:20:14;;;;;;;11.27;8.73;;;;;;;-2.47;nan;99216.34;5079377;28;20231;-63
2021/01/31 03:22:43;;;;;;;12.85;9.38;;;;;;;-2.37;nan;99219.31;5073337;28;20214;-62
2021/01/31 03:25:13;;;;;;;13.75;9.10;;;;;;;-2.36;nan;99221.84;5069503;28;20221;-62
2021/01/31 03:27:41;;;;;;;15.73;10.75;;;;;;;-2.33;nan;99219.03;5066859;28;20316;-62
2021/01/31 03:30:10;;;;;;;12.93;9.00;;;;;;;-2.32;nan;99223.38;5078381;28;20229;-62
2021/01/31 03:32:40;;;;;;;15.98;9.75;;;;;;;-2.35;nan;99223.53;5080186;28;20217;-62
2021/01/31 03:35:09;;;;;;;16.77;10.10;;;;;;;-2.47;nan;99224.19;5071138;28;20293;-62
2021/01/31 03:37:39;;;;;;;14.00;10.05;;;;;;;-2.54;nan;99221.06;5073934;28;20618;-63
2021/01/31 03:40:07;;;;;;;15.30;11.05;;;;;;;-2.54;nan;99212.38;5071635;28;20233;-62
2021/01/31 03:42:34;;;;;;;12.02;8.95;;;;;;;-2.61;nan;99219.72;5073514;28;20241;-63
2021/01/31 03:45:04;;;;;;;13.40;9.20;;;;;;;-2.51;nan;99222.69;5070192;28;20246;-62
2021/01/31 03:47:34;;;;;;;14.13;10.77;;;;;;;-2.38;nan;99222.84;5060028;28;20279;-63
2021/01/31 03:50:00;;;;;;;16.17;9.65;;;;;;;-2.31;nan;99222.44;5070044;28;20222;-63
2021/01/31 03:52:27;;;;;;;14.90;10.55;;;;;;;-2.32;nan;99218.13;5079581;28;20229;-63
2021/01/31 03:54:54;;;;;;;15.98;11.10;;;;;;;-2.34;nan;99225.22;5075303;28;20267;-62
2021/01/31 03:57:23;;;;;;;15.45;10.10;;;;;;;-2.32;nan;99225.97;5076341;28;20238;-63
2021/01/31 03:59:51;;;;;;;16.23;10.85;;;;;;;-2.33;nan;99229.50;5080862;28;20201;-63
2021/01/31 04:02:19;;;;;;;15.27;10.27;;;;;;;-2.41;nan;99226.50;5076578;28;20236;-62
2021/01/31 04:04:46;;;;;;;15.57;9.85;;;;;;;-2.35;nan;99230.53;5079682;28;20245;-62
2021/01/31 04:07:16;;;;;;;17.88;10.88;;;;;;;-2.36;nan;99229.72;5071954;28;20375;-63
2021/01/31 04:09:42;;;;;;;13.20;10.00;;;;;;;-2.34;nan;99235.69;5069367;28;20218;-63
2021/01/31 04:12:11;;;;;;;17.95;10.10;;;;;;;-2.36;nan;99232.31;5069193;28;20258;-63
2021/01/31 04:14:41;;;;;;;13.38;9.32;;;;;;;-2.42;nan;99239.66;5083063;28;20212;-63
2021/01/31 04:17:08;;;;;;;11.63;8.60;;;;;;;-2.46;nan;99244.22;5082322;28;20229;-63
2021/01/31 04:19:34;;;;;;;18.67;10.63;;;;;;;-2.40;nan;99248.28;5064204;28;20222;-62
2021/01/31 04:22:00;;;;;;;14.43;9.50;;;;;;;-2.33;nan;99245.22;5076829;28;20229;-63
2021/01/31 04:24:26;;;;;;;14.30;10.20;;;;;;;-2.29;nan;99248.53;5082998;28;20225;-63
2021/01/31 04:26:52;;;;;;;14.25;9.57;;;;;;;-2.36;nan;99245.41;5080446;28;20287;-62
2021/01/31 04:29:19;;;;;;;14.63;9.70;;;;;;;-2.39;nan;99244.75;5067554;28;20211;-63
2021/01/31 04:31:45;;;;;;;14.48;10.05;;;;;;;-2.55;nan;99253.41;5069359;28;20238;-63
2021/01/31 04:34:11;;;;;;;14.82;11.05;;;;;;;-2.60;nan;99250.19;5080490;28;20206;-63
2021/01/31 04:36:38;;;;;;;16.80;10.15;;;;;;;-2.62;nan;99253.81;5073514;28;20253;-62
2021/01/31 04:39:05;;;;;;;17.42;10.48;;;;;;;-2.67;nan;99249.69;5083690;28;20194;-62
2021/01/31 04:41:34;;;;;;;11.10;9.23;;;;;;;-2.66;nan;99246.16;5079511;28;20264;-62
2021/01/31 04:44:00;;;;;;;17.00;9.90;;;;;;;-2.74;nan;99244.84;5076502;28;20242;-62
2021/01/31 04:46:37;;;;;;;15.00;10.25;;;;;;;-2.83;nan;99254.00;5078695;28;20295;-62
2021/01/31 04:49:09;;;;;;;12.88;9.68;;;;;;;-2.88;nan;99251.66;5076998;28;20244;-62
2021/01/31 04:51:42;;;;;;;13.77;9.30;;;;;;;-2.94;nan;99248.50;5070272;28;20233;-62
2021/01/31 04:54:20;;;;;;;14.73;10.48;;;;;;;-2.90;nan;99252.66;5064323;28;20265;-61
2021/01/31 04:57:01;;;;;;;17.23;11.07;;;;;;;-2.89;nan;99252.56;5072093;28;20268;-61
2021/01/31 04:59:30;;;;;;;14.45;9.93;;;;;;;-2.97;nan;99248.66;5080383;28;20226;-61
2021/01/31 05:02:02;;;;;;;14.23;9.63;;;;;;;-3.09;nan;99240.56;5081854;28;20221;-61
2021/01/31 05:04:29;;;;;;;15.50;9.60;;;;;;;-3.05;nan;99251.69;5074047;28;20245;-62
2021/01/31 05:06:59;;;;;;;14.55;10.10;;;;;;;-3.14;nan;99249.53;5081356;28;20257;-62
2021/01/31 05:09:27;;;;;;;13.00;9.23;;;;;;;-3.13;nan;99246.00;5074324;28;20290;-62
2021/01/31 05:11:58;;;;;;;16.45;11.32;;;;;;;-3.11;nan;99249.38;5065941;28;20286;-62
2021/01/31 05:14:45;;;;;;;16.42;11.10;;;;;;;-3.14;nan;99252.16;5074140;28;20202;-62
2021/01/31 05:17:13;;;;;;;15.30;10.50;;;;;;;-3.10;nan;99259.75;5063045;28;20288;-62
2021/01/31 05:19:39;;;;;;;15.50;10.27;;;;;;;-3.23;nan;99266.53;5081180;28;20236;-61
2021/01/31 05:22:05;;;;;;;19.50;11.05;;;;;;;-3.16;nan;99269.69;5073719;28;20306;-61
2021/01/31 05:24:32;;;;;;;15.20;10.40;;;;;;;-3.12;nan;99271.25;5070723;28;20268;-62
2021/01/31 05:27:01;;;;;;;17.48;11.55;;;;;;;-3.14;nan;99271.31;5066340;28;20282;-63
2021/01/31 05:29:31;;;;;;;16.13;9.85;;;;;;;-3.24;nan;99272.69;5079769;28;20246;-62
2021/01/31 05:32:02;;;;;;;13.70;10.50;;;;;;;-3.26;nan;99272.78;5079779;28;20252;-61
2021/01/31 05:34:35;;;;;;;16.35;10.80;;;;;;;-3.30;nan;99279.09;5070713;28;20240;-61
2021/01/31 05:37:03;;;;;;;12.88;9.73;;;;;;;-3.23;nan;99266.53;5074599;28;20257;-61
2021/01/31 05:39:54;;;;;;;16.13;10.45;;;;;;;-3.32;nan;99270.44;5073104;28;20216;-62
2021/01/31 05:42:23;;;;;;;16.08;9.70;;;;;;;-3.41;nan;99277.00;5063170;28;20240;-62
2021/01/31 05:44:58;;;;;;;13.90;10.20;;;;;;;-3.37;nan;99282.91;5081929;28;20213;-62
2021/01/31 05:47:25;;;;;;;17.35;11.40;;;;;;;-3.29;nan;99277.31;5068443;28;20708;-61
2021/01/31 05:49:53;;;;;;;17.92;11.63;;;;;;;-3.34;nan;99277.53;5070626;28;20215;-62
2021/01/31 05:52:32;;;;;;;16.25;10.95;;;;;;;-3.41;nan;99274.38;5073816;28;20230;-62
2021/01/31 05:55:00;;;;;;;15.60;11.23;;;;;;;-3.37;nan;99269.00;5071433;28;20206;-61
2021/01/31 05:57:28;;;;;;;17.40;10.75;;;;;;;-3.28;nan;99266.78;5080027;28;20234;-61
2021/01/31 05:59:55;;;;;;;16.67;11.43;;;;;;;-3.23;nan;99261.31;5080525;28;20608;-62
2021/01/31 06:02:24;;;;;;;13.20;10.10;;;;;;;-3.28;nan;99260.69;5073313;28;20253;-62
2021/01/31 06:05:09;;;;;;;18.75;10.68;;;;;;;-3.31;nan;99253.03;5073272;28;20241;-61
2021/01/31 06:07:37;;;;;;;16.83;11.40;;;;;;;-3.36;nan;99255.84;5068537;28;20225;-61
2021/01/31 06:10:09;;;;;;;14.75;10.45;;;;;;;-3.47;nan;99255.53;5075967;28;20202;-61
2021/01/31 06:12:35;;;;;;;16.67;10.65;;;;;;;-3.54;nan;99256.78;5060226;28;20226;-61
2021/01/31 06:15:05;;;;;;;16.08;11.10;;;;;;;-3.55;nan;99258.53;5052840;28;20214;-61
2021/01/31 06:17:33;;;;;;;18.38;11.40;;;;;;;-3.53;nan;99256.69;5067950;28;20226;-61
2021/01/31 06:20:02;;;;;;;13.15;10.30;;;;;;;-3.57;nan;99255.16;5072831;28;20201;-61
2021/01/31 06:22:40;;;;;;;13.18;9.90;;;;;;;-3.61;nan;99254.47;5078459;28;20236;-61
2021/01/31 06:25:10;;;;;;;13.57;10.43;;;;;;;-3.67;nan;99248.72;5069452;28;20233;-61
2021/01/31 06:27:37;;;;;;;14.43;10.80;;;;;;;-3.68;nan;99262.69;5076284;28;20229;-61
2021/01/31 06:30:24;;;;;;;14.25;9.85;;;;;;;-3.71;nan;99258.47;5081158;28;20233;-61
2021/01/31 06:32:52;;;;;;;16.27;11.45;;;;;;;-3.74;nan;99256.00;5068936;28;20586;-62
2021/01/31 06:35:21;;;;;;;18.92;11.60;;;;;;;-3.67;nan;99257.38;5080466;28;20278;-62
2021/01/31 06:38:04;;;;;;;15.23;9.45;;;;;;;-3.72;nan;99245.47;5081773;28;20248;-62
2021/01/31 06:40:38;;;;;;;11.57;9.98;;;;;;;-3.69;nan;99247.94;5079564;28;20239;-61
2021/01/31 06:43:08;;;;;;;14.15;10.60;;;;;;;-3.74;nan;99255.16;5079307;28;20216;-62
2021/01/31 06:45:39;;;;;;;17.65;11.77;;;;;;;-3.85;nan;99248.69;5069539;28;20279;-62
2021/01/31 06:48:17;;;;;;;14.20;10.75;;;;;;;-3.87;nan;99254.88;5081691;28;20276;-62
2021/01/31 06:51:03;;;;;;;13.85;9.43;;;;;;;-3.95;nan;99257.88;5070327;28;20255;-62
2021/01/31 06:53:42;;;;;;;16.35;11.38;;;;;;;-3.91;nan;99255.97;5080734;28;20234;-61
2021/01/31 06:56:56;;;;;;;16.13;11.65;;;;;;;-3.84;nan;99262.56;5080400;28;20249;-61
2021/01/31 06:59:38;;;;;;;18.02;11.25;;;;;;;-3.80;nan;99251.09;5073561;28;20197;-62
2021/01/31 07:02:27;;;;;;;18.10;11.88;;;;;;;-3.85;nan;99253.06;5081111;28;20251;-62
2021/01/31 07:05:06;;;;;;;15.65;10.90;;;;;;;-3.87;nan;99265.34;5079510;28;20206;-62
2021/01/31 07:08:11;;;;;;;18.63;11.48;;;;;;;-3.86;nan;99260.03;5073885;28;20229;-60
2021/01/31 07:11:06;;;;;;;16.20;10.30;;;;;;;-3.66;nan;99266.09;5079555;28;20665;-61
2021/01/31 07:13:43;;;;;;;14.32;10.10;;;;;;;-3.64;nan;99262.47;5077296;28;20440;-62
2021/01/31 07:16:20;;;;;;;15.70;10.75;;;;;;;-3.63;nan;99271.13;5080457;28;20248;-62
2021/01/31 07:18:52;;;;;;;18.35;10.25;;;;;;;-3.70;nan;99269.75;5081236;28;20201;-61
2021/01/31 07:21:21;;;;;;;18.33;11.77;;;;;;;-3.70;nan;99272.34;5080514;28;20260;-62
2021/01/31 07:23:49;;;;;;;14.20;11.30;;;;;;;-3.75;nan;99274.34;5081363;28;20210;-61
2021/01/31 07:26:27;;;;;;;20.83;12.43;;;;;;;-3.71;nan;99271.53;5074804;28;20253;-62
2021/01/31 07:28:55;;;;;;;19.85;11.35;;;;;;;-3.62;nan;99271.06;5061633;28;20225;-62
2021/01/31 07:31:24;;;;;;;18.67;11.77;;;;;;;-3.70;nan;99272.34;5060269;28;20582;-61
2021/01/31 07:33:53;;;;;;;14.18;10.80;;;;;;;-3.66;nan;99276.53;5060980;28;20653;-62
2021/01/31 07:36:23;;;;;;;19.90;11.25;;;;;;;-3.58;nan;99282.19;5080111;28;20279;-64
2021/01/31 07:38:53;;;;;;;16.73;12.25;;;;;;;-3.44;nan;99279.78;5075210;28;20273;-60
2021/01/31 07:41:21;;;;;;;15.57;10.07;;;;;;;-3.42;nan;99288.38;5060714;28;20231;-62
2021/01/31 07:43:51;;;;;;;17.02;12.43;;;;;;;-3.37;nan;99282.06;5061182;28;20247;-63
2021/01/31 07:46:19;;;;;;;18.33;14.05;;;;;;;-3.37;nan;99285.53;5059746;28;20240;-61
2021/01/31 07:49:06;;;;;;;18.95;13.93;;;;;;;-3.33;nan;99274.00;5064848;28;20272;-62
2021/01/31 07:52:09;;;;;;;19.98;13.07;;;;;;;-3.17;nan;99279.31;5076631;28;20233;-62
2021/01/31 07:54:37;;;;;;;21.25;12.93;;;;;;;-3.14;nan;99283.50;5066725;28;20207;-62
2021/01/31 07:57:37;;;;;;;19.63;13.10;;;;;;;-3.00;nan;99278.44;5082694;28;20262;-61
2021/01/31 08:00:11;;;;;;;20.40;14.25;;;;;;;-2.69;nan;99282.06;5022458;28;20211;-61
2021/01/31 08:02:40;;;;;;;19.25;12.68;;;;;;;-1.42;nan;99281.25;5020949;28;20234;-62
2021/01/31 08:05:08;;;;;;;16.70;11.95;;;;;;;0.90;nan;99279.03;5021296;28;20216;-62
2021/01/31 08:07:59;;;;;;;20.80;12.53;;;;;;;3.38;nan;99287.59;5020576;28;20196;-62
2021/01/31 08:10:45;;;;;;;13.20;11.20;;;;;;;5.40;nan;99285.31;5021482;28;20466;-62
2021/01/31 08:13:31;;;;;;;13.63;11.27;;;;;;;6.58;nan;99286.56;5012550;28;20471;-62
2021/01/31 08:15:57;;;;;;;10.07;8.20;;;;;;;7.21;nan;99279.94;5005500;28;20498;-62
2021/01/31 08:18:24;;;;;;;11.67;7.77;;;;;;;8.06;nan;99280.75;5006647;28;20701;-62
2021/01/31 08:20:52;;;;;;;11.23;8.63;;;;;;;8.75;nan;99283.81;5014526;28;20517;-62
2021/01/31 08:23:54;;;;;;;9.73;8.47;;;;;;;7.46;nan;99283.78;5021681;28;20470;-62
2021/01/31 08:26:50;;;;;;;12.67;8.10;;;;;;;6.79;nan;99287.25;5000656;28;20467;-62
2021/01/31 08:29:29;;;;;;;8.70;7.33;;;;;;;6.65;nan;99279.72;4937894;29;21092;-62
2021/01/31 08:32:07;;;;;;;8.70;6.80;;;;;;;7.80;nan;99276.13;4943163;29;20545;-62
2021/01/31 08:35:06;;;;;;;10.17;7.60;;;;;;;9.15;nan;99269.16;4945892;28;20462;-62
2021/01/31 08:37:32;;;;;;;10.13;7.83;;;;;;;10.21;nan;99271.56;5021102;28;20529;-63
2021/01/31 08:39:58;;;;;;;11.67;7.77;;;;;;;10.79;nan;99271.69;5021047;28;20454;-63
2021/01/31 08:42:24;;;;;;;9.00;8.00;;;;;;;11.17;nan;99278.19;5019916;28;20495;-63
2021/01/31 08:44:58;;;;;;;9.30;8.03;;;;;;;11.40;nan;99277.50;5020795;28;20518;-63
2021/01/31 08:47:24;;;;;;;9.27;8.27;;;;;;;11.37;nan;99277.84;5020372;28;20517;-63
2021/01/31 08:50:00;;;;;;;9.03;7.70;;;;;;;10.22;nan;99272.38;5020847;28;20533;-62
2021/01/31 08:52:27;;;;;;;8.67;7.60;;;;;;;10.64;nan;99268.81;5020397;28;20482;-63
2021/01/31 08:55:06;;;;;;;9.90;8.57;;;;;;;9.51;nan;99272.59;5020003;28;20487;-65
2021/01/31 08:57:33;;;;;;;10.20;8.30;;;;;;;9.72;nan;99274.00;5019728;28;20471;-65
2021/01/31 09:00:06;;;;;;;9.57;8.33;;;;;;;9.75;nan;99277.19;5020343;28;20435;-64
2021/01/31 09:02:34;;;;;;;9.90;8.13;;;;;;;10.02;nan;99275.31;5027183;28;21007;-65
2021/01/31 09:05:05;;;;;;;8.73;7.83;;;;;;;10.40;nan;99274.94;5079201;28;20444;-65
2021/01/31 09:07:33;;;;;;;9.00;8.10;;;;;;;10.79;nan;99271.69;5082597;28;20890;-65
2021/01/31 09:10:04;;;;;;;9.23;8.20;;;;;;;10.95;nan;99273.53;5067312;28;20507;-65
2021/01/31 09:12:30;;;;;;;10.17;8.50;;;;;;;10.59;nan;99265.81;5048847;28;20993;-66
2021/01/31 09:15:13;;;;;;;9.20;8.03;;;;;;;10.77;nan;99258.47;5046399;28;20457;-64
2021/01/31 09:17:40;;;;;;;10.70;8.67;;;;;;;10.44;nan;99257.63;5046941;28;20454;-67
2021/01/31 09:20:12;;;;;;;8.80;7.90;;;;;;;10.91;nan;99268.50;5043204;28;20426;-66
2021/01/31 09:22:40;;;;;;;10.80;9.37;;;;;;;11.00;nan;99273.88;5062874;28;20492;-64
2021/01/31 09:25:09;;;;;;;10.07;8.70;;;;;;;12.10;nan;99275.97;5068368;28;21017;-65
2021/01/31 09:27:42;;;;;;;11.10;9.90;;;;;;;12.18;nan;99278.63;5080215;28;20937;-64
2021/01/31 09:30:13;;;;;;;9.93;8.93;;;;;;;8.23;nan;99282.63;5082446;28;20435;-66
2021/01/31 09:32:41;;;;;;;9.80;7.93;;;;;;;9.65;nan;99273.81;5082078;28;20456;-65
2021/01/31 09:35:09;;;;;;;9.87;8.77;;;;;;;10.03;nan;99279.66;5081161;28;20518;-65
2021/01/31 09:37:36;;;;;;;11.10;8.80;;;;;;;9.71;nan;99283.03;5069915;28;20879;-66
2021/01/31 09:40:05;;;;;;;10.70;8.93;;;;;;;10.48;nan;99281.16;5063157;28;20453;-65
2021/01/31 09:42:33;;;;;;;11.40;9.37;;;;;;;10.90;nan;99282.91;5040783;28;20466;-64
2021/01/31 09:45:03;;;;;;;11.73;9.57;;;;;;;9.40;nan;99287.00;5057070;28;20976;-66
2021/01/31 09:47:30;;;;;;;11.47;9.23;;;;;;;11.25;nan;99286.22;5041699;28;20480;-66
2021/01/31 09:49:59;;;;;;;8.70;7.80;;;;;;;12.24;nan;99280.63;5042864;28;20558;-67
2021/01/31 09:52:25;;;;;;;10.73;9.63;;;;;;;10.36;nan;99274.44;5061157;28;20488;-66
2021/01/31 09:54:51;;;;;;;10.40;9.40;;;;;;;9.48;nan;99272.03;5077816;28;20477;-65
2021/01/31 09:57:21;;;;;;;9.90;8.90;;;;;;;10.95;nan;99278.88;5080661;28;20506;-65
2021/01/31 09:59:47;;;;;;;10.53;9.33;;;;;;;10.01;nan;99278.97;5082158;28;20447;-66
2021/01/31 10:02:17;;;;;;;10.80;8.90;;;;;;;9.20;nan;99275.72;5076729;28;20473;-66
2021/01/31 10:04:45;;;;;;;10.67;9.57;;;;;;;8.77;nan;99273.88;5062107;28;20473;-66
2021/01/31 10:07:14;;;;;;;9.60;8.60;;;;;;;8.66;nan;99269.59;5066010;28;20500;-67
2021/01/31 10:09:42;;;;;;;11.93;9.50;;;;;;;9.60;nan;99268.13;5078943;28;20496;-66
2021/01/31 10:12:27;;;;;;;10.87;8.67;;;;;;;7.49;nan;99280.84;5067411;28;20511;-65
2021/01/31 10:14:55;;;;;;;10.57;9.47;;;;;;;6.03;nan;99282.53;5068903;28;20451;-66
2021/01/31 10:17:31;;;;;;;10.77;9.63;;;;;;;6.04;nan;99286.00;5080295;28;20468;-66
2021/01/31 10:20:25;;;;;;;10.63;8.37;;;;;;;8.14;nan;99288.00;5076295;28;20451;-66
2021/01/31 10:22:52;;;;;;;9.90;9.00;;;;;;;9.59;nan;99274.44;5054336;28;20499;-67
2021/01/31 10:25:18;;;;;;;9.43;8.30;;;;;;;9.91;nan;99265.78;5078835;28;20452;-66
2021/01/31 10:27:46;;;;;;;12.03;9.30;;;;;;;8.72;nan;99257.50;5080550;28;20451;-65
2021/01/31 10:30:24;;;;;;;9.67;8.60;;;;;;;9.60;nan;99258.28;5069605;28;20475;-66
2021/01/31 10:32:51;;;;;;;10.47;9.33;;;;;;;9.86;nan;99254.75;5062883;28;20483;-65
2021/01/31 10:35:33;;;;;;;9.40;8.40;;;;;;;9.09;nan;99240.47;5071874;28;20528;-67
2021/01/31 10:38:01;;;;;;;10.97;9.23;;;;;;;8.33;nan;99247.09;5061018;28;20464;-65
2021/01/31 10:40:27;;;;;;;9.43;8.53;;;;;;;9.26;nan;99241.41;5073275;28;20498;-65
2021/01/31 10:42:53;;;;;;;11.47;9.57;;;;;;;8.48;nan;99237.63;5074203;28;20459;-65
2021/01/31 10:45:23;;;;;;;10.37;9.20;;;;;;;6.72;nan;99221.56;5067894;28;20518;-65
2021/01/31 10:47:49;;;;;;;12.43;9.80;;;;;;;8.89;nan;99222.00;5077899;28;20811;-66
2021/01/31 10:50:17;;;;;;;12.27;10.00;;;;;;;8.03;nan;99223.31;5061212;28;20451;-65
2021/01/31 10:52:45;;;;;;;11.13;9.93;;;;;;;7.04;nan;99231.84;5072021;28;20513;-65
2021/01/31 10:55:12;;;;;;;11.23;10.03;;;;;;;7.47;nan;99221.66;5075042;28;20495;-65
2021/01/31 10:57:39;;;;;;;11.63;9.57;;;;;;;7.08;nan;99229.72;5079126;28;20987;-65
2021/01/31 11:00:07;;;;;;;11.07;9.70;;;;;;;7.62;nan;99217.53;5067985;28;20444;-65
2021/01/31 11:02:33;;;;;;;12.50;10.50;;;;;;;7.68;nan;99224.91;5075419;28;20456;-64
2021/01/31 11:05:00;;;;;;;10.33;9.03;;;;;;;8.54;nan;99214.84;5069421;28;20467;-65
2021/01/31 11:07:26;;;;;;;9.23;8.23;;;;;;;8.10;nan;99218.25;5060939;28;20476;-65
2021/01/31 11:09:53;;;;;;;10.10;8.83;;;;;;;7.30;nan;99209.94;5069575;28;20534;-66
2021/01/31 11:12:19;;;;;;;9.40;8.40;;;;;;;6.98;nan;99208.50;5057033;28;20519;-64
2021/01/31 11:14:45;;;;;;;9.90;8.90;;;;;;;6.78;nan;99192.59;5062201;28;20475;-65
2021/01/31 11:17:12;;;;;;;10.80;8.90;;;;;;;6.40;nan;99198.78;5068515;28;20504;-63
2021/01/31 11:19:38;;;;;;;13.13;10.03;;;;;;;4.43;nan;99195.47;5074536;28;20444;-62
2021/01/31 11:22:04;;;;;;;12.60;9.73;;;;;;;5.89;nan;99194.50;5076371;28;20471;-63
2021/01/31 11:24:30;;;;;;;10.67;9.57;;;;;;;6.77;nan;99184.75;5073691;28;20455;-61
2021/01/31 11:26:57;;;;;;;10.90;8.80;;;;;;;6.29;nan;99177.69;5077302;28;20525;-64
2021/01/31 11:29:23;;;;;;;11.17;9.40;;;;;;;5.84;nan;99179.81;5081696;28;20515;-64
2021/01/31 11:31:49;;;;;;;11.37;9.30;;;;;;;6.45;nan;99182.44;5079905;28;20479;-64
2021/01/31 11:34:16;;;;;;;10.13;8.50;;;;;;;6.03;nan;99170.25;5081213;28;20464;-63
2021/01/31 11:36:42;;;;;;;12.20;9.33;;;;;;;5.26;nan;99175.19;5073657;28;20475;-64
2021/01/31 11:39:08;;;;;;;10.23;8.40;;;;;;;5.54;nan;99172.78;5078981;28;20435;-64
2021/01/31 11:41:35;;;;;;;10.17;8.97;;;;;;;5.98;nan;99175.97;5075086;28;20483;-64
2021/01/31 11:44:03;;;;;;;11.70;9.30;;;;;;;6.34;nan;99176.28;5065879;28;20459;-64
2021/01/31 11:46:29;;;;;;;10.90;9.40;;;;;;;6.58;nan;99175.03;5061828;28;21007;-63
2021/01/31 11:48:55;;;;;;;12.70;9.90;;;;;;;5.83;nan;99166.69;5079747;28;20530;-63
2021/01/31 11:51:22;;;;;;;14.63;10.60;;;;;;;5.43;nan;99170.22;5064296;28;20548;-63
2021/01/31 11:53:48;;;;;;;12.77;9.37;;;;;;;5.16;nan;99162.91;5062230;28;20624;-63
2021/01/31 11:56:14;;;;;;;11.07;9.47;;;;;;;5.41;nan;99169.53;5072170;28;20475;-63
2021/01/31 11:58:40;;;;;;;12.40;9.03;;;;;;;5.29;nan;99166.13;5083131;28;20448;-63
2021/01/31 12:01:07;;;;;;;10.50;9.40;;;;;;;6.45;nan;99156.72;5081919;28;20481;-63